sensor_id;sensor_type;location;lat;lon;timestamp;P1;durP1;ratioP1;P2;durP2;ratioP2
5277;SDS011;2662;51.194;6.614;2023-03-01T00:00:49;16.00;;;6.70;;
5277;SDS011;2662;51.194;6.614;2023-03-01T00:03:16;11.17;;;5.40;;
5277;SDS011;2662;51.194;6.614;2023-03-01T00:05:45;11.00;;;5.73;;
5277;SDS011;2662;51.194;6.614;2023-03-01T00:08:14;6.70;;;4.67;;
5277;SDS011;2662;51.194;6.614;2023-03-01T00:10:41;12.10;;;5.73;;
5277;SDS011;2662;51.194;6.614;2023-03-01T00:13:07;7.63;;;5.37;;
5277;SDS011;2662;51.194;6.614;2023-03-01T00:15:37;9.40;;;5.53;;
5277;SDS011;2662;51.194;6.614;2023-03-01T00:18:04;7.87;;;5.40;;
5277;SDS011;2662;51.194;6.614;2023-03-01T00:20:31;10.17;;;5.50;;
5277;SDS011;2662;51.194;6.614;2023-03-01T00:22:58;8.50;;;5.47;;
5277;SDS011;2662;51.194;6.614;2023-03-01T00:25:26;6.17;;;4.93;;
5277;SDS011;2662;51.194;6.614;2023-03-01T00:27:52;9.87;;;5.60;;
5277;SDS011;2662;51.194;6.614;2023-03-01T00:30:19;12.47;;;6.17;;
5277;SDS011;2662;51.194;6.614;2023-03-01T00:32:46;9.97;;;5.97;;
5277;SDS011;2662;51.194;6.614;2023-03-01T00:35:12;11.97;;;5.90;;
5277;SDS011;2662;51.194;6.614;2023-03-01T00:37:39;9.83;;;5.73;;
5277;SDS011;2662;51.194;6.614;2023-03-01T00:40:07;8.90;;;5.53;;
5277;SDS011;2662;51.194;6.614;2023-03-01T00:42:36;7.97;;;5.20;;
5277;SDS011;2662;51.194;6.614;2023-03-01T00:45:03;11.17;;;6.00;;
5277;SDS011;2662;51.194;6.614;2023-03-01T00:47:32;12.17;;;5.87;;
5277;SDS011;2662;51.194;6.614;2023-03-01T00:49:59;9.93;;;5.70;;
5277;SDS011;2662;51.194;6.614;2023-03-01T00:52:26;8.07;;;5.20;;
5277;SDS011;2662;51.194;6.614;2023-03-01T00:54:53;11.73;;;6.60;;
5277;SDS011;2662;51.194;6.614;2023-03-01T00:57:20;9.20;;;5.30;;
5277;SDS011;2662;51.194;6.614;2023-03-01T00:59:48;13.20;;;6.50;;
5277;SDS011;2662;51.194;6.614;2023-03-01T01:02:14;10.17;;;6.47;;
5277;SDS011;2662;51.194;6.614;2023-03-01T01:04:41;12.03;;;6.67;;
5277;SDS011;2662;51.194;6.614;2023-03-01T01:07:08;10.77;;;5.40;;
5277;SDS011;2662;51.194;6.614;2023-03-01T01:09:34;10.90;;;5.87;;
5277;SDS011;2662;51.194;6.614;2023-03-01T01:12:02;8.00;;;5.77;;
5277;SDS011;2662;51.194;6.614;2023-03-01T01:14:28;6.67;;;5.50;;
5277;SDS011;2662;51.194;6.614;2023-03-01T01:16:57;10.17;;;6.10;;
5277;SDS011;2662;51.194;6.614;2023-03-01T01:19:23;11.10;;;6.60;;
5277;SDS011;2662;51.194;6.614;2023-03-01T01:21:51;10.23;;;5.97;;
5277;SDS011;2662;51.194;6.614;2023-03-01T01:24:18;13.40;;;6.57;;
5277;SDS011;2662;51.194;6.614;2023-03-01T01:26:45;9.25;;;5.90;;
5277;SDS011;2662;51.194;6.614;2023-03-01T01:29:12;6.80;;;5.30;;
5277;SDS011;2662;51.194;6.614;2023-03-01T01:31:40;9.75;;;6.40;;
5277;SDS011;2662;51.194;6.614;2023-03-01T01:34:18;11.77;;;6.50;;
5277;SDS011;2662;51.194;6.614;2023-03-01T01:36:47;11.93;;;6.22;;
5277;SDS011;2662;51.194;6.614;2023-03-01T01:39:15;19.10;;;8.02;;
5277;SDS011;2662;51.194;6.614;2023-03-01T01:41:42;9.77;;;5.63;;
5277;SDS011;2662;51.194;6.614;2023-03-01T01:44:10;9.50;;;6.33;;
5277;SDS011;2662;51.194;6.614;2023-03-01T01:46:39;9.93;;;6.50;;
5277;SDS011;2662;51.194;6.614;2023-03-01T01:49:14;10.27;;;5.60;;
5277;SDS011;2662;51.194;6.614;2023-03-01T01:51:47;9.10;;;6.00;;
5277;SDS011;2662;51.194;6.614;2023-03-01T01:54:16;10.00;;;5.70;;
5277;SDS011;2662;51.194;6.614;2023-03-01T01:56:47;9.20;;;5.93;;
5277;SDS011;2662;51.194;6.614;2023-03-01T01:59:16;8.53;;;5.90;;
5277;SDS011;2662;51.194;6.614;2023-03-01T02:01:43;14.03;;;6.20;;
5277;SDS011;2662;51.194;6.614;2023-03-01T02:04:11;20.00;;;6.33;;
5277;SDS011;2662;51.194;6.614;2023-03-01T02:06:39;8.10;;;5.50;;
5277;SDS011;2662;51.194;6.614;2023-03-01T02:09:11;10.60;;;6.20;;
5277;SDS011;2662;51.194;6.614;2023-03-01T02:11:40;8.20;;;5.90;;
5277;SDS011;2662;51.194;6.614;2023-03-01T02:14:08;8.57;;;5.90;;
5277;SDS011;2662;51.194;6.614;2023-03-01T02:16:35;12.20;;;6.33;;
5277;SDS011;2662;51.194;6.614;2023-03-01T02:19:02;6.87;;;5.37;;
5277;SDS011;2662;51.194;6.614;2023-03-01T02:21:35;12.10;;;6.13;;
5277;SDS011;2662;51.194;6.614;2023-03-01T02:24:10;7.77;;;5.77;;
5277;SDS011;2662;51.194;6.614;2023-03-01T02:26:46;8.88;;;5.80;;
5277;SDS011;2662;51.194;6.614;2023-03-01T02:29:18;13.17;;;6.60;;
5277;SDS011;2662;51.194;6.614;2023-03-01T02:31:45;10.50;;;6.00;;
5277;SDS011;2662;51.194;6.614;2023-03-01T02:34:13;15.38;;;6.70;;
5277;SDS011;2662;51.194;6.614;2023-03-01T02:36:44;8.20;;;4.97;;
5277;SDS011;2662;51.194;6.614;2023-03-01T02:39:14;9.57;;;6.40;;
5277;SDS011;2662;51.194;6.614;2023-03-01T02:41:45;11.18;;;6.43;;
5277;SDS011;2662;51.194;6.614;2023-03-01T02:44:14;13.70;;;6.80;;
5277;SDS011;2662;51.194;6.614;2023-03-01T02:46:46;12.35;;;6.22;;
5277;SDS011;2662;51.194;6.614;2023-03-01T02:49:18;14.95;;;6.78;;
5277;SDS011;2662;51.194;6.614;2023-03-01T02:51:48;14.60;;;6.68;;
5277;SDS011;2662;51.194;6.614;2023-03-01T02:54:28;12.80;;;7.05;;
5277;SDS011;2662;51.194;6.614;2023-03-01T02:56:59;11.90;;;6.22;;
5277;SDS011;2662;51.194;6.614;2023-03-01T02:59:29;10.82;;;6.45;;
5277;SDS011;2662;51.194;6.614;2023-03-01T03:02:01;11.18;;;6.20;;
5277;SDS011;2662;51.194;6.614;2023-03-01T03:04:28;10.07;;;6.30;;
5277;SDS011;2662;51.194;6.614;2023-03-01T03:06:54;10.85;;;7.18;;
5277;SDS011;2662;51.194;6.614;2023-03-01T03:09:24;11.20;;;6.35;;
5277;SDS011;2662;51.194;6.614;2023-03-01T03:11:50;10.13;;;5.80;;
5277;SDS011;2662;51.194;6.614;2023-03-01T03:14:17;8.03;;;5.80;;
5277;SDS011;2662;51.194;6.614;2023-03-01T03:16:45;10.43;;;5.77;;
5277;SDS011;2662;51.194;6.614;2023-03-01T03:19:14;14.03;;;6.67;;
5277;SDS011;2662;51.194;6.614;2023-03-01T03:21:41;9.20;;;5.90;;
5277;SDS011;2662;51.194;6.614;2023-03-01T03:24:08;8.93;;;5.80;;
5277;SDS011;2662;51.194;6.614;2023-03-01T03:26:35;16.13;;;7.47;;
5277;SDS011;2662;51.194;6.614;2023-03-01T03:29:02;10.50;;;6.63;;
5277;SDS011;2662;51.194;6.614;2023-03-01T03:31:29;14.60;;;7.25;;
5277;SDS011;2662;51.194;6.614;2023-03-01T03:33:56;14.77;;;6.68;;
5277;SDS011;2662;51.194;6.614;2023-03-01T03:36:25;12.43;;;6.43;;
5277;SDS011;2662;51.194;6.614;2023-03-01T03:38:51;12.23;;;6.43;;
5277;SDS011;2662;51.194;6.614;2023-03-01T03:41:18;13.90;;;6.90;;
5277;SDS011;2662;51.194;6.614;2023-03-01T03:43:45;11.30;;;7.10;;
5277;SDS011;2662;51.194;6.614;2023-03-01T03:46:12;10.57;;;5.80;;
5277;SDS011;2662;51.194;6.614;2023-03-01T03:48:40;9.63;;;6.07;;
5277;SDS011;2662;51.194;6.614;2023-03-01T03:51:09;10.15;;;5.90;;
5277;SDS011;2662;51.194;6.614;2023-03-01T03:53:38;15.50;;;6.90;;
5277;SDS011;2662;51.194;6.614;2023-03-01T03:56:06;12.30;;;6.80;;
5277;SDS011;2662;51.194;6.614;2023-03-01T03:58:33;16.58;;;7.93;;
5277;SDS011;2662;51.194;6.614;2023-03-01T04:01:00;12.15;;;6.55;;
5277;SDS011;2662;51.194;6.614;2023-03-01T04:03:27;11.82;;;6.82;;
5277;SDS011;2662;51.194;6.614;2023-03-01T04:05:56;12.03;;;6.50;;
5277;SDS011;2662;51.194;6.614;2023-03-01T04:08:23;9.00;;;5.90;;
5277;SDS011;2662;51.194;6.614;2023-03-01T04:10:52;9.65;;;6.25;;
5277;SDS011;2662;51.194;6.614;2023-03-01T04:13:24;11.00;;;6.00;;
5277;SDS011;2662;51.194;6.614;2023-03-01T04:15:51;13.65;;;7.32;;
5277;SDS011;2662;51.194;6.614;2023-03-01T04:18:19;11.70;;;6.78;;
5277;SDS011;2662;51.194;6.614;2023-03-01T04:20:47;12.40;;;6.70;;
5277;SDS011;2662;51.194;6.614;2023-03-01T04:23:17;10.95;;;6.35;;
5277;SDS011;2662;51.194;6.614;2023-03-01T04:25:46;12.07;;;6.25;;
5277;SDS011;2662;51.194;6.614;2023-03-01T04:28:20;7.35;;;5.70;;
5277;SDS011;2662;51.194;6.614;2023-03-01T04:30:49;12.20;;;6.88;;
5277;SDS011;2662;51.194;6.614;2023-03-01T04:33:16;13.98;;;6.30;;
5277;SDS011;2662;51.194;6.614;2023-03-01T04:35:43;10.15;;;6.32;;
5277;SDS011;2662;51.194;6.614;2023-03-01T04:38:10;10.77;;;6.70;;
5277;SDS011;2662;51.194;6.614;2023-03-01T04:40:37;10.10;;;7.13;;
5277;SDS011;2662;51.194;6.614;2023-03-01T04:43:04;10.63;;;6.57;;
5277;SDS011;2662;51.194;6.614;2023-03-01T04:45:32;11.02;;;6.50;;
5277;SDS011;2662;51.194;6.614;2023-03-01T04:48:00;11.80;;;6.80;;
5277;SDS011;2662;51.194;6.614;2023-03-01T04:50:27;11.23;;;6.45;;
5277;SDS011;2662;51.194;6.614;2023-03-01T04:52:54;12.10;;;6.80;;
5277;SDS011;2662;51.194;6.614;2023-03-01T04:55:23;17.13;;;6.47;;
5277;SDS011;2662;51.194;6.614;2023-03-01T04:57:50;14.55;;;6.93;;
5277;SDS011;2662;51.194;6.614;2023-03-01T05:00:18;11.20;;;6.60;;
5277;SDS011;2662;51.194;6.614;2023-03-01T05:02:50;10.98;;;6.95;;
5277;SDS011;2662;51.194;6.614;2023-03-01T05:05:23;15.68;;;6.93;;
5277;SDS011;2662;51.194;6.614;2023-03-01T05:07:52;12.10;;;6.30;;
5277;SDS011;2662;51.194;6.614;2023-03-01T05:10:19;11.88;;;6.95;;
5277;SDS011;2662;51.194;6.614;2023-03-01T05:12:46;8.52;;;5.78;;
5277;SDS011;2662;51.194;6.614;2023-03-01T05:15:13;10.20;;;6.55;;
5277;SDS011;2662;51.194;6.614;2023-03-01T05:17:39;12.80;;;7.03;;
5277;SDS011;2662;51.194;6.614;2023-03-01T05:20:09;10.23;;;6.75;;
5277;SDS011;2662;51.194;6.614;2023-03-01T05:22:36;11.65;;;6.60;;
5277;SDS011;2662;51.194;6.614;2023-03-01T05:25:03;10.35;;;6.55;;
5277;SDS011;2662;51.194;6.614;2023-03-01T05:27:32;10.50;;;6.80;;
5277;SDS011;2662;51.194;6.614;2023-03-01T05:29:59;12.57;;;6.75;;
5277;SDS011;2662;51.194;6.614;2023-03-01T05:32:38;17.48;;;7.15;;
5277;SDS011;2662;51.194;6.614;2023-03-01T05:35:06;13.77;;;6.55;;
5277;SDS011;2662;51.194;6.614;2023-03-01T05:37:34;16.05;;;7.78;;
5277;SDS011;2662;51.194;6.614;2023-03-01T05:40:01;12.07;;;6.70;;
5277;SDS011;2662;51.194;6.614;2023-03-01T05:42:30;12.98;;;7.25;;
5277;SDS011;2662;51.194;6.614;2023-03-01T05:44:56;9.23;;;6.13;;
5277;SDS011;2662;51.194;6.614;2023-03-01T05:47:23;11.90;;;6.82;;
5277;SDS011;2662;51.194;6.614;2023-03-01T05:49:50;12.13;;;7.05;;
5277;SDS011;2662;51.194;6.614;2023-03-01T05:52:16;14.02;;;7.35;;
5277;SDS011;2662;51.194;6.614;2023-03-01T05:54:44;9.82;;;6.40;;
5277;SDS011;2662;51.194;6.614;2023-03-01T05:57:11;11.65;;;6.80;;
5277;SDS011;2662;51.194;6.614;2023-03-01T05:59:38;13.18;;;7.35;;
5277;SDS011;2662;51.194;6.614;2023-03-01T06:02:05;10.10;;;6.78;;
5277;SDS011;2662;51.194;6.614;2023-03-01T06:04:31;11.68;;;6.65;;
5277;SDS011;2662;51.194;6.614;2023-03-01T06:06:58;10.45;;;7.00;;
5277;SDS011;2662;51.194;6.614;2023-03-01T06:09:25;11.00;;;7.57;;
5277;SDS011;2662;51.194;6.614;2023-03-01T06:11:53;11.43;;;7.07;;
5277;SDS011;2662;51.194;6.614;2023-03-01T06:14:19;14.90;;;7.60;;
5277;SDS011;2662;51.194;6.614;2023-03-01T06:16:46;15.52;;;8.13;;
5277;SDS011;2662;51.194;6.614;2023-03-01T06:19:13;14.05;;;7.43;;
5277;SDS011;2662;51.194;6.614;2023-03-01T06:21:39;10.98;;;6.55;;
5277;SDS011;2662;51.194;6.614;2023-03-01T06:24:06;12.95;;;6.85;;
5277;SDS011;2662;51.194;6.614;2023-03-01T06:26:33;13.90;;;7.90;;
5277;SDS011;2662;51.194;6.614;2023-03-01T06:29:01;11.93;;;6.88;;
5277;SDS011;2662;51.194;6.614;2023-03-01T06:31:28;12.45;;;7.18;;
5277;SDS011;2662;51.194;6.614;2023-03-01T06:33:54;14.32;;;7.07;;
5277;SDS011;2662;51.194;6.614;2023-03-01T06:36:21;19.42;;;7.63;;
5277;SDS011;2662;51.194;6.614;2023-03-01T06:38:48;11.98;;;6.85;;
5277;SDS011;2662;51.194;6.614;2023-03-01T06:41:14;11.73;;;7.20;;
5277;SDS011;2662;51.194;6.614;2023-03-01T06:43:41;14.00;;;7.10;;
5277;SDS011;2662;51.194;6.614;2023-03-01T06:46:09;17.05;;;7.05;;
5277;SDS011;2662;51.194;6.614;2023-03-01T06:48:36;15.02;;;7.35;;
5277;SDS011;2662;51.194;6.614;2023-03-01T06:51:02;13.32;;;7.00;;
5277;SDS011;2662;51.194;6.614;2023-03-01T06:53:29;13.93;;;7.20;;
5277;SDS011;2662;51.194;6.614;2023-03-01T06:55:56;15.73;;;7.70;;
5277;SDS011;2662;51.194;6.614;2023-03-01T06:58:25;13.40;;;7.00;;
5277;SDS011;2662;51.194;6.614;2023-03-01T07:00:51;14.07;;;6.90;;
5277;SDS011;2662;51.194;6.614;2023-03-01T07:03:19;11.50;;;7.80;;
5277;SDS011;2662;51.194;6.614;2023-03-01T07:05:48;11.47;;;7.20;;
5277;SDS011;2662;51.194;6.614;2023-03-01T07:08:16;17.40;;;7.23;;
5277;SDS011;2662;51.194;6.614;2023-03-01T07:10:43;13.60;;;6.80;;
5277;SDS011;2662;51.194;6.614;2023-03-01T07:13:10;11.40;;;6.67;;
5277;SDS011;2662;51.194;6.614;2023-03-01T07:15:36;16.33;;;6.90;;
5277;SDS011;2662;51.194;6.614;2023-03-01T07:18:03;14.33;;;7.17;;
5277;SDS011;2662;51.194;6.614;2023-03-01T07:20:31;14.53;;;8.00;;
5277;SDS011;2662;51.194;6.614;2023-03-01T07:22:58;9.87;;;7.00;;
5277;SDS011;2662;51.194;6.614;2023-03-01T07:25:24;11.13;;;7.10;;
5277;SDS011;2662;51.194;6.614;2023-03-01T07:27:51;12.40;;;7.50;;
5277;SDS011;2662;51.194;6.614;2023-03-01T07:30:19;11.93;;;7.37;;
5277;SDS011;2662;51.194;6.614;2023-03-01T07:32:46;13.53;;;7.00;;
5277;SDS011;2662;51.194;6.614;2023-03-01T07:35:12;12.87;;;7.30;;
5277;SDS011;2662;51.194;6.614;2023-03-01T07:37:42;13.60;;;7.73;;
5277;SDS011;2662;51.194;6.614;2023-03-01T07:40:09;11.27;;;7.50;;
5277;SDS011;2662;51.194;6.614;2023-03-01T07:42:37;14.90;;;7.60;;
5277;SDS011;2662;51.194;6.614;2023-03-01T07:45:04;9.10;;;7.13;;
5277;SDS011;2662;51.194;6.614;2023-03-01T07:47:32;14.43;;;7.90;;
5277;SDS011;2662;51.194;6.614;2023-03-01T07:49:59;17.13;;;7.60;;
5277;SDS011;2662;51.194;6.614;2023-03-01T07:52:26;15.77;;;7.07;;
5277;SDS011;2662;51.194;6.614;2023-03-01T07:54:54;15.43;;;8.30;;
5277;SDS011;2662;51.194;6.614;2023-03-01T07:57:21;17.53;;;8.20;;
5277;SDS011;2662;51.194;6.614;2023-03-01T07:59:47;14.10;;;8.00;;
5277;SDS011;2662;51.194;6.614;2023-03-01T08:02:14;16.03;;;8.40;;
5277;SDS011;2662;51.194;6.614;2023-03-01T08:04:41;20.03;;;8.80;;
5277;SDS011;2662;51.194;6.614;2023-03-01T08:07:08;14.80;;;9.10;;
5277;SDS011;2662;51.194;6.614;2023-03-01T08:09:34;19.07;;;8.77;;
5277;SDS011;2662;51.194;6.614;2023-03-01T08:12:04;12.13;;;8.10;;
5277;SDS011;2662;51.194;6.614;2023-03-01T08:14:31;16.93;;;8.40;;
5277;SDS011;2662;51.194;6.614;2023-03-01T08:16:58;12.43;;;8.03;;
5277;SDS011;2662;51.194;6.614;2023-03-01T08:19:24;11.30;;;7.33;;
5277;SDS011;2662;51.194;6.614;2023-03-01T08:21:53;17.43;;;8.47;;
5277;SDS011;2662;51.194;6.614;2023-03-01T08:24:19;11.40;;;8.33;;
5277;SDS011;2662;51.194;6.614;2023-03-01T08:26:46;19.40;;;9.50;;
5277;SDS011;2662;51.194;6.614;2023-03-01T08:29:14;17.60;;;9.63;;
5277;SDS011;2662;51.194;6.614;2023-03-01T08:31:41;12.43;;;8.60;;
5277;SDS011;2662;51.194;6.614;2023-03-01T08:34:08;15.80;;;8.60;;
5277;SDS011;2662;51.194;6.614;2023-03-01T08:36:37;12.90;;;7.97;;
5277;SDS011;2662;51.194;6.614;2023-03-01T08:39:05;11.97;;;8.03;;
5277;SDS011;2662;51.194;6.614;2023-03-01T08:41:32;14.27;;;8.23;;
5277;SDS011;2662;51.194;6.614;2023-03-01T08:43:59;16.10;;;9.60;;
5277;SDS011;2662;51.194;6.614;2023-03-01T08:46:28;12.80;;;8.07;;
5277;SDS011;2662;51.194;6.614;2023-03-01T08:48:55;15.50;;;9.40;;
5277;SDS011;2662;51.194;6.614;2023-03-01T08:51:22;11.70;;;8.63;;
5277;SDS011;2662;51.194;6.614;2023-03-01T08:53:49;17.40;;;8.60;;
5277;SDS011;2662;51.194;6.614;2023-03-01T08:56:16;16.87;;;9.20;;
5277;SDS011;2662;51.194;6.614;2023-03-01T08:58:44;16.03;;;9.27;;
5277;SDS011;2662;51.194;6.614;2023-03-01T09:01:12;15.57;;;9.03;;
5277;SDS011;2662;51.194;6.614;2023-03-01T09:03:42;17.10;;;8.33;;
5277;SDS011;2662;51.194;6.614;2023-03-01T09:06:09;17.50;;;7.93;;
5277;SDS011;2662;51.194;6.614;2023-03-01T09:08:37;15.73;;;8.80;;
5277;SDS011;2662;51.194;6.614;2023-03-01T09:11:05;13.10;;;8.83;;
5277;SDS011;2662;51.194;6.614;2023-03-01T09:13:33;15.83;;;9.30;;
5277;SDS011;2662;51.194;6.614;2023-03-01T09:16:01;17.10;;;8.60;;
5277;SDS011;2662;51.194;6.614;2023-03-01T09:18:29;17.17;;;9.60;;
5277;SDS011;2662;51.194;6.614;2023-03-01T09:21:01;13.37;;;8.30;;
5277;SDS011;2662;51.194;6.614;2023-03-01T09:23:32;17.37;;;8.03;;
5277;SDS011;2662;51.194;6.614;2023-03-01T09:26:01;23.43;;;8.50;;
5277;SDS011;2662;51.194;6.614;2023-03-01T09:28:28;18.27;;;7.53;;
5277;SDS011;2662;51.194;6.614;2023-03-01T09:30:57;11.63;;;7.90;;
5277;SDS011;2662;51.194;6.614;2023-03-01T09:33:24;15.10;;;7.80;;
5277;SDS011;2662;51.194;6.614;2023-03-01T09:35:55;12.60;;;8.30;;
5277;SDS011;2662;51.194;6.614;2023-03-01T09:38:24;12.20;;;7.43;;
5277;SDS011;2662;51.194;6.614;2023-03-01T09:40:50;17.97;;;8.40;;
5277;SDS011;2662;51.194;6.614;2023-03-01T09:43:18;10.87;;;7.50;;
5277;SDS011;2662;51.194;6.614;2023-03-01T09:45:52;12.00;;;7.23;;
5277;SDS011;2662;51.194;6.614;2023-03-01T09:48:21;12.50;;;7.93;;
5277;SDS011;2662;51.194;6.614;2023-03-01T09:50:52;16.93;;;7.37;;
5277;SDS011;2662;51.194;6.614;2023-03-01T09:53:19;14.00;;;7.97;;
5277;SDS011;2662;51.194;6.614;2023-03-01T09:55:51;14.63;;;8.33;;
5277;SDS011;2662;51.194;6.614;2023-03-01T09:58:29;17.13;;;7.90;;
5277;SDS011;2662;51.194;6.614;2023-03-01T10:01:04;11.73;;;7.77;;
5277;SDS011;2662;51.194;6.614;2023-03-01T10:03:56;10.17;;;7.03;;
5277;SDS011;2662;51.194;6.614;2023-03-01T10:06:37;12.80;;;7.77;;
5277;SDS011;2662;51.194;6.614;2023-03-01T10:09:05;10.33;;;7.70;;
5277;SDS011;2662;51.194;6.614;2023-03-01T10:11:41;10.00;;;7.10;;
5277;SDS011;2662;51.194;6.614;2023-03-01T10:14:13;18.70;;;7.33;;
5277;SDS011;2662;51.194;6.614;2023-03-01T10:16:50;15.33;;;7.80;;
5277;SDS011;2662;51.194;6.614;2023-03-01T10:19:23;18.90;;;7.60;;
5277;SDS011;2662;51.194;6.614;2023-03-01T10:21:54;12.17;;;7.30;;
5277;SDS011;2662;51.194;6.614;2023-03-01T10:24:26;14.30;;;8.00;;
5277;SDS011;2662;51.194;6.614;2023-03-01T10:27:00;12.70;;;7.50;;
5277;SDS011;2662;51.194;6.614;2023-03-01T10:29:34;13.13;;;7.40;;
5277;SDS011;2662;51.194;6.614;2023-03-01T10:32:10;16.33;;;7.60;;
5277;SDS011;2662;51.194;6.614;2023-03-01T10:34:37;19.03;;;7.80;;
5277;SDS011;2662;51.194;6.614;2023-03-01T10:37:09;15.70;;;7.77;;
5277;SDS011;2662;51.194;6.614;2023-03-01T10:39:37;15.00;;;7.33;;
5277;SDS011;2662;51.194;6.614;2023-03-01T10:42:25;12.60;;;7.20;;
5277;SDS011;2662;51.194;6.614;2023-03-01T10:44:55;11.13;;;7.03;;
5277;SDS011;2662;51.194;6.614;2023-03-01T10:47:23;14.43;;;7.70;;
5277;SDS011;2662;51.194;6.614;2023-03-01T10:49:51;13.83;;;7.50;;
5277;SDS011;2662;51.194;6.614;2023-03-01T10:52:21;14.40;;;7.30;;
5277;SDS011;2662;51.194;6.614;2023-03-01T10:54:51;12.73;;;7.53;;
5277;SDS011;2662;51.194;6.614;2023-03-01T10:57:27;9.63;;;6.93;;
5277;SDS011;2662;51.194;6.614;2023-03-01T11:03:08;18.77;;;8.03;;
5277;SDS011;2662;51.194;6.614;2023-03-01T11:05:44;10.97;;;6.83;;
5277;SDS011;2662;51.194;6.614;2023-03-01T11:08:29;14.83;;;6.83;;
5277;SDS011;2662;51.194;6.614;2023-03-01T11:11:04;12.47;;;7.50;;
5277;SDS011;2662;51.194;6.614;2023-03-01T11:13:50;14.53;;;6.83;;
5277;SDS011;2662;51.194;6.614;2023-03-01T11:16:23;11.00;;;6.70;;
5277;SDS011;2662;51.194;6.614;2023-03-01T11:18:59;12.73;;;6.90;;
5277;SDS011;2662;51.194;6.614;2023-03-01T11:21:30;17.73;;;7.80;;
5277;SDS011;2662;51.194;6.614;2023-03-01T11:24:00;13.20;;;7.67;;
5277;SDS011;2662;51.194;6.614;2023-03-01T11:26:29;10.33;;;6.63;;
5277;SDS011;2662;51.194;6.614;2023-03-01T11:29:02;11.73;;;7.47;;
5277;SDS011;2662;51.194;6.614;2023-03-01T11:31:33;14.37;;;6.80;;
5277;SDS011;2662;51.194;6.614;2023-03-01T11:34:03;17.10;;;7.00;;
5277;SDS011;2662;51.194;6.614;2023-03-01T11:36:38;14.13;;;8.10;;
5277;SDS011;2662;51.194;6.614;2023-03-01T11:39:12;13.43;;;7.03;;
5277;SDS011;2662;51.194;6.614;2023-03-01T11:41:48;12.13;;;6.70;;
5277;SDS011;2662;51.194;6.614;2023-03-01T11:44:21;11.40;;;7.30;;
5277;SDS011;2662;51.194;6.614;2023-03-01T11:46:58;13.47;;;7.10;;
5277;SDS011;2662;51.194;6.614;2023-03-01T11:49:43;14.20;;;6.73;;
5277;SDS011;2662;51.194;6.614;2023-03-01T11:52:27;12.53;;;7.00;;
5277;SDS011;2662;51.194;6.614;2023-03-01T11:55:10;10.37;;;6.40;;
5277;SDS011;2662;51.194;6.614;2023-03-01T11:57:53;14.30;;;6.97;;
5277;SDS011;2662;51.194;6.614;2023-03-01T12:00:48;11.90;;;7.17;;
5277;SDS011;2662;51.194;6.614;2023-03-01T12:03:30;11.97;;;7.20;;
5277;SDS011;2662;51.194;6.614;2023-03-01T12:09:09;14.13;;;7.20;;
5277;SDS011;2662;51.194;6.614;2023-03-01T12:11:52;16.07;;;7.27;;
5277;SDS011;2662;51.194;6.614;2023-03-01T12:14:33;12.23;;;6.20;;
5277;SDS011;2662;51.194;6.614;2023-03-01T12:17:23;8.77;;;6.13;;
5277;SDS011;2662;51.194;6.614;2023-03-01T12:20:10;8.13;;;5.80;;
5277;SDS011;2662;51.194;6.614;2023-03-01T12:22:50;13.83;;;6.60;;
5277;SDS011;2662;51.194;6.614;2023-03-01T12:25:27;15.63;;;6.07;;
5277;SDS011;2662;51.194;6.614;2023-03-01T12:28:02;11.70;;;6.43;;
5277;SDS011;2662;51.194;6.614;2023-03-01T12:30:48;11.37;;;6.67;;
5277;SDS011;2662;51.194;6.614;2023-03-01T12:33:45;9.53;;;5.80;;
5277;SDS011;2662;51.194;6.614;2023-03-01T12:39:20;10.90;;;6.10;;
5277;SDS011;2662;51.194;6.614;2023-03-01T12:42:01;10.40;;;5.80;;
5277;SDS011;2662;51.194;6.614;2023-03-01T12:44:38;9.90;;;6.30;;
5277;SDS011;2662;51.194;6.614;2023-03-01T12:47:21;9.23;;;5.47;;
5277;SDS011;2662;51.194;6.614;2023-03-01T12:49:59;10.47;;;5.70;;
5277;SDS011;2662;51.194;6.614;2023-03-01T12:52:32;9.90;;;4.97;;
5277;SDS011;2662;51.194;6.614;2023-03-01T12:55:06;9.47;;;5.50;;
5277;SDS011;2662;51.194;6.614;2023-03-01T12:57:46;10.17;;;5.43;;
5277;SDS011;2662;51.194;6.614;2023-03-01T13:00:24;10.27;;;5.70;;
5277;SDS011;2662;51.194;6.614;2023-03-01T13:02:58;9.27;;;5.03;;
5277;SDS011;2662;51.194;6.614;2023-03-01T13:05:35;8.57;;;5.37;;
5277;SDS011;2662;51.194;6.614;2023-03-01T13:08:08;9.33;;;5.60;;
5277;SDS011;2662;51.194;6.614;2023-03-01T13:10:46;12.80;;;5.50;;
5277;SDS011;2662;51.194;6.614;2023-03-01T13:13:19;7.87;;;5.70;;
5277;SDS011;2662;51.194;6.614;2023-03-01T13:15:47;8.93;;;5.10;;
5277;SDS011;2662;51.194;6.614;2023-03-01T13:18:29;7.30;;;4.57;;
5277;SDS011;2662;51.194;6.614;2023-03-01T13:21:00;15.03;;;5.03;;
5277;SDS011;2662;51.194;6.614;2023-03-01T13:23:30;7.73;;;5.10;;
5277;SDS011;2662;51.194;6.614;2023-03-01T13:26:02;5.83;;;4.67;;
5277;SDS011;2662;51.194;6.614;2023-03-01T13:28:41;7.50;;;4.80;;
5277;SDS011;2662;51.194;6.614;2023-03-01T13:34:42;12.90;;;5.87;;
5277;SDS011;2662;51.194;6.614;2023-03-01T13:37:25;6.60;;;5.47;;
5277;SDS011;2662;51.194;6.614;2023-03-01T13:39:56;5.73;;;5.00;;
5277;SDS011;2662;51.194;6.614;2023-03-01T13:42:31;8.63;;;5.40;;
5277;SDS011;2662;51.194;6.614;2023-03-01T13:45:16;14.10;;;4.87;;
5277;SDS011;2662;51.194;6.614;2023-03-01T13:47:48;10.20;;;5.10;;
5277;SDS011;2662;51.194;6.614;2023-03-01T13:50:19;11.90;;;4.63;;
5277;SDS011;2662;51.194;6.614;2023-03-01T13:52:52;7.13;;;4.23;;
5277;SDS011;2662;51.194;6.614;2023-03-01T13:55:23;7.87;;;4.80;;
5277;SDS011;2662;51.194;6.614;2023-03-01T13:57:53;10.10;;;4.70;;
5277;SDS011;2662;51.194;6.614;2023-03-01T14:00:27;13.93;;;5.23;;
5277;SDS011;2662;51.194;6.614;2023-03-01T14:02:59;7.50;;;4.97;;
5277;SDS011;2662;51.194;6.614;2023-03-01T14:05:28;6.03;;;4.60;;
5277;SDS011;2662;51.194;6.614;2023-03-01T14:07:57;8.40;;;4.50;;
5277;SDS011;2662;51.194;6.614;2023-03-01T14:10:25;10.00;;;5.30;;
5277;SDS011;2662;51.194;6.614;2023-03-01T14:13:00;11.93;;;4.43;;
5277;SDS011;2662;51.194;6.614;2023-03-01T14:15:40;9.17;;;4.97;;
5277;SDS011;2662;51.194;6.614;2023-03-01T14:18:10;5.87;;;5.00;;
5277;SDS011;2662;51.194;6.614;2023-03-01T14:20:45;9.07;;;4.67;;
5277;SDS011;2662;51.194;6.614;2023-03-01T14:23:17;11.17;;;5.63;;
5277;SDS011;2662;51.194;6.614;2023-03-01T14:25:46;8.03;;;5.40;;
5277;SDS011;2662;51.194;6.614;2023-03-01T14:28:16;7.90;;;5.10;;
5277;SDS011;2662;51.194;6.614;2023-03-01T14:30:46;7.30;;;5.10;;
5277;SDS011;2662;51.194;6.614;2023-03-01T14:33:19;11.90;;;5.90;;
5277;SDS011;2662;51.194;6.614;2023-03-01T14:35:57;7.90;;;5.30;;
5277;SDS011;2662;51.194;6.614;2023-03-01T14:38:32;8.13;;;4.97;;
5277;SDS011;2662;51.194;6.614;2023-03-01T14:41:01;11.40;;;5.80;;
5277;SDS011;2662;51.194;6.614;2023-03-01T14:43:30;12.53;;;6.43;;
5277;SDS011;2662;51.194;6.614;2023-03-01T14:45:57;7.47;;;5.00;;
5277;SDS011;2662;51.194;6.614;2023-03-01T14:48:24;9.10;;;5.97;;
5277;SDS011;2662;51.194;6.614;2023-03-01T14:50:53;6.30;;;4.77;;
5277;SDS011;2662;51.194;6.614;2023-03-01T14:53:21;10.20;;;5.97;;
5277;SDS011;2662;51.194;6.614;2023-03-01T14:55:52;9.00;;;5.67;;
5277;SDS011;2662;51.194;6.614;2023-03-01T14:58:20;10.80;;;6.43;;
5277;SDS011;2662;51.194;6.614;2023-03-01T15:00:49;8.43;;;5.67;;
5277;SDS011;2662;51.194;6.614;2023-03-01T15:03:20;10.53;;;5.63;;
5277;SDS011;2662;51.194;6.614;2023-03-01T15:05:51;13.40;;;5.40;;
5277;SDS011;2662;51.194;6.614;2023-03-01T15:08:19;10.73;;;5.90;;
5277;SDS011;2662;51.194;6.614;2023-03-01T15:11:00;9.17;;;5.57;;
5277;SDS011;2662;51.194;6.614;2023-03-01T15:13:30;8.33;;;5.53;;
5277;SDS011;2662;51.194;6.614;2023-03-01T15:16:04;8.80;;;5.10;;
5277;SDS011;2662;51.194;6.614;2023-03-01T15:18:33;7.83;;;5.00;;
5277;SDS011;2662;51.194;6.614;2023-03-01T15:21:05;9.00;;;4.77;;
5277;SDS011;2662;51.194;6.614;2023-03-01T15:23:34;7.87;;;5.10;;
5277;SDS011;2662;51.194;6.614;2023-03-01T15:26:04;7.70;;;4.93;;
5277;SDS011;2662;51.194;6.614;2023-03-01T15:28:31;9.40;;;5.40;;
5277;SDS011;2662;51.194;6.614;2023-03-01T15:31:01;8.07;;;4.80;;
5277;SDS011;2662;51.194;6.614;2023-03-01T15:33:32;7.63;;;5.20;;
5277;SDS011;2662;51.194;6.614;2023-03-01T15:36:04;8.33;;;4.90;;